WEATHER DATA

YESTERDAY
Time Temp. Dewp. Hum. Wind dir Wind speed Wind gust Bar. 1h Prec. 24h Prec.
00:02 8 7.6 97 225 0.8 1.9 1000.1 0.0000 0.0000
00:23 7.9 7.5 97 218 0.8 1.9 1000.3 0.0000 0.0000
00:33 7.9 7.5 97 228 0.3 1.1 1000.3 0.0000 0.0000
00:43 7.8 7.4 97 220 0.8 1.7 1000.3 0.0000 0.0000
00:53 7.8 7.4 97 216 0.8 1.7 1000.2 0.0000 0.0000
01:03 7.7 7.3 97 225 0.3 0.8 999.8 0.0000 0.0000
01:13 7.7 7.3 97 216 0.3 0.8 999.9 0.0000 0.0000
01:23 7.7 7.3 97 225 0.3 0.8 999.7 0.0000 0.0000
01:44 7.7 7.3 97 219 0.8 1.7 999.7 0.0000 0.0000
01:54 7.7 7.3 97 219 0.8 1.7 999.9 0.0000 0.0000
02:03 7.7 7.3 97 216 0.3 0.8 999.9 0.0000 0.0000
02:14 7.7 7.3 97 216 0.3 1.1 999.8 0.0000 0.0000
02:24 7.6 7.2 97 221 0.8 1.9 999.8 0.0000 0.0000
02:34 7.5 7.1 97 219 1.1 2.5 999.9 0.0000 0.0000
02:44 7.5 7.1 97 222 0.8 1.9 999.8 0.0000 0.0000
02:54 7.5 7.1 97 220 0.8 1.7 999.7 0.0000 0.0000
03:04 7.4 7 97 207 0.8 1.1 999.8 0.0000 0.0000
03:14 7.4 7 97 219 0.8 1.7 999.9 0.0000 0.0000
03:25 7.4 7 97 220 0.3 0.8 999.9 0.0000 0.0000
03:35 7.4 7 97 209 0.3 1.1 999.8 0.0000 0.0000
03:45 7.3 6.9 97 200 0.3 1.1 999.8 0.0000 0.0000
03:54 7.4 7 97 212 0.3 1.7 999.8 0.0000 0.0000
04:05 7.4 7 97 213 1.1 2.5 999.8 0.0000 0.0000
04:15 7.4 7 97 197 0.8 1.7 999.7 0.0000 0.0000
04:25 7.4 7 97 204 0.8 1.7 999.7 0.0000 0.0000
04:35 7.4 7 97 213 0.8 1.7 999.6 0.0000 0.0000
04:46 7.5 7.1 97 210 0.8 1.7 999.6 0.0000 0.0000
04:55 7.5 7.1 97 153 0.8 1.7 999.6 0.0000 0.0000
05:05 7.5 7.1 97 203 1.1 1.9 999.8 0.0000 0.0000
05:16 7.6 7.2 97 187 1.1 1.9 999.7 0.0000 0.0000
05:26 7.6 7.2 97 210 1.1 2.8 999.8 0.0000 0.0000
05:36 7.7 7.3 97 186 1.1 2.8 999.9 0.0000 0.0000
05:46 7.8 7.4 97 195 1.1 2.8 1000.1 0.0000 0.0000
05:56 7.8 7.4 97 212 2.5 4.2 1000.1 0.0000 0.0000
06:06 7.9 7.5 97 214 1.7 3.6 1000.1 0.0000 0.0000
06:16 7.9 7.5 97 240 1.7 4.2 1000.1 0.0000 0.0000
06:27 8 7.6 97 230 1.7 4.2 1000.2 0.0000 0.0000
06:37 8 7.6 97 226 1.7 3.3 1000.1 0.0000 0.0000
06:46 8.1 7.7 97 223 1.7 4.2 1000.2 0.0000 0.0000
06:56 8.1 7.7 97 223 1.7 2.5 1000.4 0.0000 0.0000
07:07 8.2 7.8 97 220 1.9 3.3 1000.6 0.0000 0.0000
07:17 8.2 7.8 97 221 1.9 4.2 1000.8 0.0000 0.0000
07:27 8.2 7.8 97 212 1.7 3.6 1000.9 0.1010 0.1000
07:37 8.2 7.8 97 212 1.7 3.3 1001.1 0.1010 0.1000
07:47 8.2 7.8 97 211 1.7 3.6 1001.1 0.2020 0.2000
07:57 8.2 7.8 97 219 1.7 3.6 1001.2 0.2020 0.2000
08:07 8.2 7.8 97 221 1.7 3.3 1001.3 0.2020 0.2000
08:18 8.2 7.8 97 222 1.1 3.3 1001.4 0.2020 0.2000
08:27 8.2 7.8 97 209 1.1 2.8 1001.5 0.1010 0.2000
08:37 8.2 7.8 97 202 1.1 3.3 1001.6 0.1010 0.2000
08:48 8.2 7.8 97 219 1.1 2.5 1001.7 0.1010 0.3000
08:58 8.2 7.8 97 212 1.1 2.8 1001.8 0.1010 0.3000
09:08 8.2 7.8 97 206 1.1 2.8 1002 0.2020 0.4000
09:17 8.2 7.8 97 199 1.1 2.5 1002 0.2020 0.4000
09:28 8.2 7.8 97 207 1.7 2.8 1002.1 0.2020 0.4000
09:38 8.2 7.8 97 207 1.7 3.3 1002.3 0.2020 0.4000
09:48 8.2 7.8 97 212 1.9 4.4 1002.4 0.1010 0.4000
09:58 8.4 8 97 223 2.8 5 1002.4 0.1010 0.4000
10:08 8.5 8.1 97 227 3.3 6.1 1002.5 0.0000 0.4000
10:18 8.6 8.2 97 229 3.6 6.1 1002.4 0.0000 0.4000
10:28 8.7 8.3 97 233 3.3 6.1 1002.7 0.1010 0.5000
10:39 8.8 8.4 97 234 3.6 6.1 1002.7 0.1010 0.5000
10:49 8.8 8.4 97 235 3.6 6.1 1002.8 0.1010 0.5000
10:58 8.9 8.5 97 235 4.2 7.5 1002.9 0.1010 0.5000
11:09 9 8.5 97 239 3.6 6.1 1002.8 0.1010 0.5000
11:19 9 8.5 97 229 3.6 7.5 1002.9 0.2020 0.6000
11:29 9 8.5 97 232 3.3 6.1 1002.9 0.2020 0.7000
11:40 8.9 8.5 97 222 2.8 6.9 1003 0.3030 0.8000
11:50 8.9 8.5 97 220 2.8 5.8 1003.2 0.3030 0.8000
12:01 8.9 8.5 97 221 1.7 3.6 1003.1 0.3030 0.8000
12:11 8.9 8.5 97 223 1.9 5.3 1003.1 0.4040 0.9000
12:21 8.9 8.5 97 218 2.5 5 1003.1 0.4040 1.0000
12:31 8.9 8.5 97 213 1.9 6.1 1003.1 0.5050 1.2000
12:41 8.8 8.4 97 215 1.9 5.3 1003.2 0.4040 1.2000
12:51 8.8 8.4 97 214 2.8 6.1 1003.3 0.5050 1.3000
13:01 8.8 8.4 97 209 1.9 5.3 1003.3 0.6060 1.4000
13:12 8.8 8.4 97 210 1.9 6.7 1003.4 0.5050 1.4000
13:21 8.8 8.4 97 216 1.9 4.4 1003.6 0.5050 1.5000
13:31 8.8 8.4 97 217 1.9 3.6 1003.6 0.4040 1.6000
13:42 8.8 8.4 97 210 1.9 4.2 1003.6 0.4040 1.6000
13:52 8.8 8.4 97 206 1.9 4.4 1003.8 0.4040 1.7000
14:02 8.9 8.5 97 204 2.5 5.8 1003.8 0.3030 1.7000
14:11 8.9 8.5 97 208 1.9 5.3 1003.9 0.3030 1.7000
14:22 9 8.5 97 212 2.8 5.8 1004.1 0.2020 1.7000
14:27 9 8.5 97 208 3.3 8.9 1004 0.1010 1.7000
14:37 9 8.5 97 205 1.9 5.3 1004.2 0.1010 1.7000
14:47 9 8.5 97 209 2.5 5.3 1004.3 0.0000 1.7000
14:58 9 8.5 97 210 3.6 6.7 1004.6 0.0000 1.7000
15:07 9.1 8.6 97 209 2.5 5 1004.7 0.0000 1.7000
15:17 9.1 8.6 97 208 1.9 4.4 1005 0.0000 1.7000
15:27 9.1 8.6 97 212 1.9 6.1 1005 0.0000 1.7000
15:38 9 8.5 97 207 1.7 5.3 1005.3 0.0000 1.7000
15:48 9 8.5 97 210 3.3 6.7 1005.4 0.0000 1.7000
15:57 8.9 8.5 97 201 2.8 6.9 1005.5 0.0000 1.7000
16:08 8.8 8.4 97 213 2.8 6.9 1005.6 0.0000 1.7000
16:18 8.7 8.3 97 205 1.9 5.3 1005.4 0.0000 1.7000
16:28 8.6 8.2 97 213 1.7 5 1005.5 0.0000 1.7000
16:38 8.4 8 97 217 2.5 6.9 1005.6 0.0000 1.7000
16:48 8.2 7.8 97 212 1.9 4.4 1005.8 0.0000 1.7000
16:58 8.1 7.8 98 216 1.9 5.3 1005.8 0.0000 1.7000
17:08 7.9 7.6 98 212 1.7 3.3 1005.9 0.0000 1.7000
17:19 7.8 7.5 98 214 1.7 3.6 1006.1 0.0000 1.7000
17:29 7.6 7.3 98 215 1.9 4.2 1006.2 0.0000 1.7000
17:38 7.6 7.2 97 206 1.9 4.2 1006.2 0.0000 1.7000
17:48 7.6 7.2 97 213 2.5 6.7 1006.3 0.0000 1.7000
17:59 7.6 7.2 97 220 1.9 5 1006.4 0.0000 1.7000
18:09 7.7 7.3 97 212 1.9 5 1006.5 0.0000 1.7000
18:19 7.7 7.3 97 203 2.5 5.3 1006.6 0.0000 1.7000
18:29 7.7 7.3 97 194 2.5 6.1 1006.6 0.0000 1.7000
18:39 7.7 7.3 97 194 1.9 5.3 1006.7 0.0000 1.7000
18:49 7.7 7.3 97 202 3.3 6.9 1006.7 0.0000 1.7000
18:59 7.6 7.2 97 211 2.8 6.9 1006.7 0.0000 1.7000
19:10 7.5 7.1 97 210 2.5 5 1006.9 0.0000 1.7000
19:19 7.4 7 97 204 1.9 5 1006.8 0.0000 1.7000
19:29 7.3 6.9 97 208 1.7 5.3 1006.9 0.0000 1.7000
19:40 7.2 6.8 97 199 1.7 4.4 1006.8 0.0000 1.7000
19:50 7.1 6.8 98 215 1.9 4.2 1006.8 0.0000 1.7000
20:00 7 6.7 98 206 1.7 3.3 1006.8 0.0000 1.7000
20:09 6.9 6.5 97 205 2.5 6.1 1006.8 0.0000 1.7000
20:20 6.9 6.5 97 199 1.9 4.4 1006.7 0.0000 1.7000
20:30 6.8 6.4 97 211 1.9 5.3 1006.8 0.0000 1.7000
20:40 6.8 6.4 97 207 2.5 5.8 1006.9 0.0000 1.7000
20:50 6.8 6.4 97 211 2.8 7.5 1006.8 0.0000 1.7000
21:00 6.7 6.3 97 204 3.3 7.5 1007 0.0000 1.7000
21:10 6.7 6.3 97 210 2.5 5.8 1007 0.0000 1.7000
21:20 6.7 6.3 97 205 2.8 7.5 1007 0.0000 1.7000
21:31 6.6 6.2 97 210 3.3 6.7 1007.1 0.0000 1.7000
21:40 6.6 6.2 97 193 1.9 5.3 1007.1 0.0000 1.7000
21:50 6.5 6.1 97 192 1.9 5.3 1007.2 0.0000 1.7000
22:01 6.5 6.1 97 189 2.8 6.7 1007.3 0.0000 1.7000
22:11 6.4 6 97 206 2.8 8.6 1007.4 0.0000 1.7000
22:24 6.4 6 97 212 3.3 10.3 1007.5 0.0000 1.7000
22:34 6.4 6 97 208 2.5 6.7 1007.5 0.0000 1.7000
22:43 6.3 5.9 97 210 3.3 7.5 1007.6 0.0000 1.7000
22:53 6.3 5.9 97 212 2.8 6.7 1007.7 0.0000 1.7000
23:04 6.3 5.9 97 217 2.8 5.3 1007.8 0.0000 1.7000
23:14 6.2 5.8 97 166 1.9 5.3 1007.8 0.0000 1.7000
23:24 6.2 5.8 97 193 2.5 6.1 1007.7 0.0000 1.7000
23:34 6.2 5.8 97 181 2.5 6.1 1007.8 0.0000 1.7000
23:44 6.2 5.8 97 184 2.5 6.1 1007.7 0.0000 1.7000
23:54 6.2 5.8 97 181 1.9 5 1007.8 0.0000

DAY STATISTIC

2019-11-18
TEMPERATURE
AVERAGE
7.9
HIGH
9.1
15:07
LOW
6.2
23:14
PRESSURE
AVERAGE
1003.4
HIGH
1007.8
23:04
LOW
999.6
04:35
DEWPOINT
AVERAGE
7.5
HIGH
8.6
15:07
LOW
5.8
23:14
HUMIDITY
AVERAGE
97
HIGH
98
16:58
LOW
97
00:02
WIND SPEED
AVERAGE
1.9
HIGH
4.2
10:58
WIND GUST
AVERAGE
4.4
HIGH
10.3
22:24
WIND DIRECTION
PREVAILING
SW
80.1%
N
0.0
NE
0.0
E
0.0
SE
0.7
S
19.1
SW
80.1
W
0.0
NW
0.0
PRECIPITATION
RAIN HOUR
0.6
RAIN DAY
1.7
TEMPERATURE (°C)
LOW
6.2
HIGH
9.1
AVERAGE
7.9
PRESSURE (hpa)
LOW
999.6
HIGH
1007.8
AVERAGE
1003.4
DEVICE